Time;durP1;ratioP1;P1;durP2;ratioP2;P2;SDS_P1;SDS_P2;PMS_P1;PMS_P2;Temp;Humidity;BMP_temperature;BMP_pressure;BME280_temperature;BME280_humidity;BME280_pressure;Samples;Min_cycle;Max_cycle;Signal;HPM_P1;HPM_P2
2024/01/25 00:02:20;;;;;;;46.20;6.25;;;7.60;99.90;;;;;;5067419;28;20050;-69
2024/01/25 00:04:46;;;;;;;47.53;6.60;;;7.60;99.90;;;;;;5050158;28;20071;-69
2024/01/25 00:07:12;;;;;;;42.83;6.07;;;7.50;99.90;;;;;;5040166;28;20082;-68
2024/01/25 00:09:38;;;;;;;45.40;6.13;;;7.50;99.90;;;;;;5051953;28;20036;-68
2024/01/25 00:12:04;;;;;;;46.60;6.05;;;7.50;99.90;;;;;;5050816;28;20405;-69
2024/01/25 00:14:30;;;;;;;45.88;5.95;;;7.50;99.90;;;;;;5067558;28;20036;-69
2024/01/25 00:16:55;;;;;;;51.47;6.47;;;7.40;99.90;;;;;;5033924;28;20059;-69
2024/01/25 00:19:21;;;;;;;46.53;7.32;;;7.30;99.90;;;;;;5067022;28;20076;-69
2024/01/25 00:21:47;;;;;;;50.35;7.18;;;7.30;99.90;;;;;;5068254;28;20044;-68
2024/01/25 00:24:13;;;;;;;44.85;7.18;;;7.30;99.90;;;;;;5055064;28;20602;-68
2024/01/25 00:26:39;;;;;;;52.28;6.93;;;7.30;99.90;;;;;;5050575;28;20043;-68
2024/01/25 00:29:05;;;;;;;52.63;8.52;;;7.20;99.90;;;;;;5050207;28;20048;-68
2024/01/25 00:31:31;;;;;;;44.38;6.35;;;7.20;99.90;;;;;;5067962;28;20036;-68
2024/01/25 00:34:01;;;;;;;52.42;6.00;;;7.10;99.90;;;;;;5071932;28;20059;-69
2024/01/25 00:36:27;;;;;;;47.83;7.18;;;7.10;99.90;;;;;;5068541;28;20560;-68
2024/01/25 00:38:54;;;;;;;51.53;7.35;;;7.10;99.90;;;;;;5051710;28;20047;-68
2024/01/25 00:41:20;;;;;;;55.38;8.27;;;7.00;99.90;;;;;;5038114;28;20044;-68
2024/01/25 00:43:46;;;;;;;48.45;7.30;;;7.00;99.90;;;;;;5068010;28;20044;-68
2024/01/25 00:46:12;;;;;;;48.72;6.85;;;6.90;99.90;;;;;;5034019;28;20052;-69
2024/01/25 00:48:47;;;;;;;47.53;7.30;;;6.90;99.90;;;;;;5068348;28;20087;-69
2024/01/25 00:51:22;;;;;;;57.05;7.18;;;6.80;99.90;;;;;;5053252;28;20036;-69
2024/01/25 00:53:48;;;;;;;57.92;7.80;;;6.90;99.90;;;;;;5101248;28;20620;-68
2024/01/25 00:56:14;;;;;;;51.67;6.95;;;6.80;99.90;;;;;;5050920;28;20119;-69
2024/01/25 00:58:40;;;;;;;62.88;8.43;;;6.80;99.90;;;;;;5051447;28;20038;-68
2024/01/25 01:01:07;;;;;;;47.13;6.72;;;6.80;99.90;;;;;;5069120;28;20764;-68
2024/01/25 01:03:33;;;;;;;53.47;7.38;;;6.80;99.90;;;;;;5054317;28;20048;-68
2024/01/25 01:05:59;;;;;;;46.63;6.85;;;6.80;99.90;;;;;;5035943;28;20131;-68
2024/01/25 01:08:26;;;;;;;50.15;6.78;;;6.80;99.90;;;;;;5072971;28;20064;-67
2024/01/25 01:10:51;;;;;;;55.90;8.30;;;6.70;99.90;;;;;;5058997;28;20122;-68
2024/01/25 01:13:17;;;;;;;56.35;8.10;;;6.70;99.90;;;;;;5054473;28;20223;-68
2024/01/25 01:15:43;;;;;;;54.13;6.00;;;6.70;99.90;;;;;;5050852;28;20286;-67
2024/01/25 01:18:08;;;;;;;40.55;5.53;;;6.70;99.90;;;;;;5070183;28;20040;-68
2024/01/25 01:20:37;;;;;;;58.60;7.80;;;6.70;99.90;;;;;;5054640;28;20039;-68
2024/01/25 01:23:03;;;;;;;52.08;6.47;;;6.60;99.90;;;;;;5072592;28;20465;-68
2024/01/25 01:25:29;;;;;;;61.85;7.68;;;6.60;99.90;;;;;;5086569;27;20044;-68
2024/01/25 01:27:56;;;;;;;54.78;6.95;;;6.50;99.90;;;;;;5053652;28;20066;-68
2024/01/25 01:30:21;;;;;;;56.17;7.60;;;6.60;99.90;;;;;;5070482;28;20224;-68
2024/01/25 01:32:47;;;;;;;48.75;6.70;;;6.50;99.90;;;;;;5054719;28;20535;-69
2024/01/25 01:35:13;;;;;;;55.65;6.88;;;6.50;99.90;;;;;;5070819;28;20040;-68
2024/01/25 01:37:39;;;;;;;50.47;7.13;;;6.40;99.90;;;;;;5053010;28;20055;-67
2024/01/25 01:40:05;;;;;;;52.40;7.13;;;6.50;99.90;;;;;;5103394;27;20174;-67
2024/01/25 01:42:33;;;;;;;48.05;6.50;;;6.40;99.90;;;;;;5052468;28;20248;-67
2024/01/25 01:44:59;;;;;;;46.03;5.88;;;6.40;99.90;;;;;;5070763;28;20055;-68
2024/01/25 01:47:25;;;;;;;55.05;7.20;;;6.40;99.90;;;;;;5087392;28;20035;-68
2024/01/25 01:49:51;;;;;;;52.92;7.00;;;6.30;99.90;;;;;;5074351;28;20712;-69
2024/01/25 01:52:17;;;;;;;55.50;7.00;;;6.30;99.90;;;;;;5073620;28;20584;-68
2024/01/25 01:54:44;;;;;;;54.80;7.30;;;6.40;99.90;;;;;;5043120;28;20042;-68
2024/01/25 01:57:10;;;;;;;41.95;6.40;;;6.40;99.90;;;;;;5073793;28;20390;-67
2024/01/25 01:59:36;;;;;;;52.38;6.72;;;6.40;99.90;;;;;;5107830;27;20213;-68
2024/01/25 02:02:02;;;;;;;58.90;7.07;;;6.30;99.90;;;;;;5061178;28;20051;-68
2024/01/25 02:04:28;;;;;;;58.70;8.18;;;6.40;99.90;;;;;;5056355;28;20040;-69
2024/01/25 02:06:54;;;;;;;40.22;4.93;;;6.30;99.90;;;;;;5064895;28;20254;-69
2024/01/25 02:09:21;;;;;;;52.33;7.85;;;6.40;99.90;;;;;;5056961;28;20587;-69
2024/01/25 02:11:50;;;;;;;56.55;7.00;;;6.40;99.90;;;;;;5057836;28;20036;-67
2024/01/25 02:14:16;;;;;;;59.00;8.20;;;6.30;99.90;;;;;;5073152;28;20046;-67
2024/01/25 02:16:45;;;;;;;55.53;6.55;;;6.30;99.90;;;;;;5073128;28;20457;-67
2024/01/25 02:19:10;;;;;;;53.42;7.18;;;6.30;99.90;;;;;;5073256;28;20168;-67
2024/01/25 02:21:36;;;;;;;53.35;7.38;;;6.40;99.90;;;;;;5071854;28;20043;-67
2024/01/25 02:24:02;;;;;;;51.78;6.88;;;6.30;99.90;;;;;;5055815;28;20039;-68
2024/01/25 02:26:28;;;;;;;56.15;7.53;;;6.30;99.90;;;;;;5072942;28;20464;-68
2024/01/25 02:28:53;;;;;;;62.75;6.85;;;6.20;99.90;;;;;;5056000;28;20118;-68
2024/01/25 02:31:19;;;;;;;57.20;6.93;;;6.20;99.90;;;;;;5073299;28;20039;-68
2024/01/25 02:33:45;;;;;;;55.35;7.20;;;6.30;99.90;;;;;;5073327;28;20035;-67
2024/01/25 02:36:10;;;;;;;49.22;6.57;;;6.20;99.90;;;;;;5072592;28;20045;-68
2024/01/25 02:38:36;;;;;;;50.00;6.72;;;6.20;99.90;;;;;;5058721;28;20065;-67
2024/01/25 02:41:02;;;;;;;56.53;6.90;;;6.10;99.90;;;;;;5075040;28;20050;-68
2024/01/25 02:43:28;;;;;;;47.63;6.25;;;6.10;99.90;;;;;;5074188;28;20042;-67
2024/01/25 02:45:53;;;;;;;60.28;6.90;;;6.00;99.90;;;;;;5076887;28;20142;-67
2024/01/25 02:48:19;;;;;;;61.72;7.20;;;6.10;99.90;;;;;;5045800;28;20079;-68
2024/01/25 02:50:45;;;;;;;51.45;5.78;;;6.00;99.90;;;;;;5074695;28;20232;-67
2024/01/25 02:53:10;;;;;;;50.67;6.22;;;6.10;99.90;;;;;;5056743;28;20044;-68
2024/01/25 02:55:36;;;;;;;54.33;6.68;;;6.00;99.90;;;;;;5056446;28;20035;-67
2024/01/25 02:58:02;;;;;;;57.30;6.95;;;6.00;99.90;;;;;;5055929;28;20424;-68
2024/01/25 03:00:28;;;;;;;71.15;7.68;;;6.00;99.90;;;;;;5074138;28;20086;-68
2024/01/25 03:02:54;;;;;;;62.35;7.78;;;6.00;99.90;;;;;;5057477;28;20039;-67
2024/01/25 03:05:20;;;;;;;57.10;7.53;;;5.90;99.90;;;;;;5074493;28;20079;-68
2024/01/25 03:07:45;;;;;;;62.97;7.43;;;6.00;99.90;;;;;;5072202;28;20147;-67
2024/01/25 03:10:11;;;;;;;60.50;7.38;;;6.00;99.90;;;;;;5038674;28;20066;-69
2024/01/25 03:12:37;;;;;;;52.70;7.07;;;5.90;99.90;;;;;;5073386;28;20040;-67
2024/01/25 03:15:03;;;;;;;57.60;7.55;;;5.90;99.90;;;;;;5056387;28;20041;-67
2024/01/25 03:17:29;;;;;;;54.88;6.50;;;6.00;99.90;;;;;;5071862;28;20043;-67
2024/01/25 03:19:55;;;;;;;55.83;7.25;;;5.90;99.90;;;;;;5072726;28;20043;-68
2024/01/25 03:22:24;;;;;;;51.38;6.80;;;5.80;99.90;;;;;;5072786;28;20663;-68
2024/01/25 03:24:49;;;;;;;48.35;6.65;;;6.00;99.90;;;;;;5076742;27;20046;-67
2024/01/25 03:27:15;;;;;;;57.53;6.63;;;6.00;99.90;;;;;;5054929;28;20035;-67
2024/01/25 03:29:43;;;;;;;64.43;7.97;;;5.90;99.90;;;;;;5054055;28;20039;-67
2024/01/25 03:32:12;;;;;;;61.03;7.32;;;6.10;99.90;;;;;;5073271;28;20481;-67
2024/01/25 03:34:38;;;;;;;63.42;7.32;;;6.00;99.90;;;;;;5057068;28;20772;-67
2024/01/25 03:37:04;;;;;;;50.70;6.60;;;5.90;99.90;;;;;;5073947;28;20031;-67
2024/01/25 03:39:30;;;;;;;52.00;6.85;;;5.90;99.90;;;;;;5057960;28;21019;-67
2024/01/25 03:41:55;;;;;;;49.78;6.57;;;5.90;99.90;;;;;;5074616;28;20056;-67
2024/01/25 03:44:24;;;;;;;54.50;6.93;;;5.90;99.90;;;;;;5057617;28;20071;-67
2024/01/25 03:46:50;;;;;;;58.03;6.90;;;5.80;99.90;;;;;;5090328;28;20050;-69
2024/01/25 03:49:16;;;;;;;60.22;7.47;;;5.70;99.90;;;;;;5040196;28;20047;-69
2024/01/25 03:51:42;;;;;;;57.20;7.20;;;5.80;99.90;;;;;;5057014;28;20051;-69
2024/01/25 03:54:08;;;;;;;53.28;6.97;;;5.60;99.90;;;;;;5072542;28;20047;-68
2024/01/25 03:56:34;;;;;;;65.13;7.55;;;5.60;99.90;;;;;;5106219;27;20031;-69
2024/01/25 03:58:59;;;;;;;55.85;7.63;;;5.40;99.90;;;;;;5074064;28;20046;-67
2024/01/25 04:01:25;;;;;;;55.15;7.00;;;5.40;99.90;;;;;;5058104;28;20040;-67
2024/01/25 04:03:51;;;;;;;55.70;6.20;;;5.10;99.90;;;;;;5055963;28;20082;-67
2024/01/25 04:06:16;;;;;;;51.28;6.22;;;5.20;99.90;;;;;;5072920;28;20138;-67
2024/01/25 04:08:42;;;;;;;67.43;7.88;;;5.10;99.90;;;;;;5074355;28;20740;-67
2024/01/25 04:11:09;;;;;;;56.60;7.30;;;5.10;99.90;;;;;;5057526;28;20071;-68
2024/01/25 04:13:35;;;;;;;53.78;5.72;;;5.00;99.90;;;;;;5055980;28;20742;-68
2024/01/25 04:16:01;;;;;;;62.70;6.65;;;5.10;99.90;;;;;;5057202;28;20031;-67
2024/01/25 04:18:26;;;;;;;62.92;6.38;;;5.00;99.90;;;;;;5057706;28;20589;-68
2024/01/25 04:20:52;;;;;;;64.43;8.40;;;5.00;99.90;;;;;;5061132;28;20135;-67
2024/01/25 04:23:18;;;;;;;64.88;7.18;;;5.10;99.90;;;;;;5073357;28;20044;-68
2024/01/25 04:25:44;;;;;;;66.88;7.70;;;5.10;99.90;;;;;;5043879;28;20047;-68
2024/01/25 04:28:10;;;;;;;70.05;7.15;;;5.10;99.90;;;;;;5058042;28;20039;-67
2024/01/25 04:30:35;;;;;;;75.30;8.05;;;4.90;99.90;;;;;;5057554;28;20042;-67
2024/01/25 04:33:02;;;;;;;73.63;7.78;;;5.10;99.90;;;;;;5056686;28;20043;-68
2024/01/25 04:35:28;;;;;;;68.88;7.75;;;5.00;99.90;;;;;;5074068;28;21240;-67
2024/01/25 04:37:53;;;;;;;61.05;7.78;;;4.90;99.90;;;;;;5057460;28;20043;-67
2024/01/25 04:40:19;;;;;;;58.88;6.60;;;4.90;99.90;;;;;;5058143;28;20091;-68
2024/01/25 04:42:45;;;;;;;61.35;8.55;;;4.90;99.90;;;;;;5065621;28;20047;-67
2024/01/25 04:45:11;;;;;;;63.70;7.68;;;4.80;99.90;;;;;;5078645;28;20094;-68
2024/01/25 04:47:39;;;;;;;69.28;7.57;;;4.70;99.90;;;;;;5076655;28;20126;-68
2024/01/25 04:50:05;;;;;;;66.82;7.60;;;4.80;99.90;;;;;;5060388;28;20103;-68
2024/01/25 04:52:31;;;;;;;70.43;7.53;;;4.50;99.90;;;;;;5065901;28;20626;-68
2024/01/25 04:54:56;;;;;;;76.63;8.23;;;4.50;99.90;;;;;;5094994;28;20101;-69
2024/01/25 04:57:22;;;;;;;67.40;7.78;;;4.60;99.90;;;;;;5059377;28;20046;-68
2024/01/25 04:59:54;;;;;;;59.53;6.70;;;4.60;99.90;;;;;;5076992;28;20051;-68
2024/01/25 05:02:20;;;;;;;64.50;6.80;;;4.40;99.90;;;;;;5110480;27;20043;-68
2024/01/25 05:04:45;;;;;;;73.88;8.05;;;4.40;99.90;;;;;;5075394;28;20882;-68
2024/01/25 05:07:11;;;;;;;74.10;8.32;;;4.70;99.90;;;;;;5109485;27;20039;-68
2024/01/25 05:09:37;;;;;;;69.55;7.80;;;4.60;99.90;;;;;;5077552;28;20035;-68
2024/01/25 05:12:02;;;;;;;72.30;7.82;;;4.80;99.90;;;;;;5076426;28;20189;-68
2024/01/25 05:14:28;;;;;;;66.40;8.05;;;4.50;99.90;;;;;;5076577;28;20744;-67
2024/01/25 05:16:54;;;;;;;69.30;8.55;;;4.50;99.90;;;;;;5059368;28;20138;-68
2024/01/25 05:19:20;;;;;;;69.50;7.35;;;4.50;99.90;;;;;;5030633;28;20036;-67
2024/01/25 05:21:46;;;;;;;76.97;9.20;;;4.70;99.90;;;;;;5059752;28;20051;-67
2024/01/25 05:24:12;;;;;;;61.35;6.60;;;4.60;99.90;;;;;;5075273;28;20044;-68
2024/01/25 05:26:38;;;;;;;61.42;7.32;;;4.50;99.90;;;;;;5066002;28;20600;-69
2024/01/25 05:29:04;;;;;;;55.70;6.68;;;4.40;99.90;;;;;;5043116;28;20134;-68
2024/01/25 05:31:30;;;;;;;65.13;7.88;;;4.40;99.90;;;;;;5057612;28;20046;-68
2024/01/25 05:33:55;;;;;;;64.05;8.50;;;4.60;99.90;;;;;;5074841;28;20047;-69
2024/01/25 05:36:21;;;;;;;74.20;8.70;;;4.60;99.90;;;;;;5065219;28;20102;-68
2024/01/25 05:38:47;;;;;;;71.32;7.45;;;4.50;99.90;;;;;;5074836;28;20524;-69
2024/01/25 05:41:13;;;;;;;76.45;8.18;;;4.40;99.90;;;;;;5073780;28;20036;-67
2024/01/25 05:43:39;;;;;;;69.88;7.57;;;4.40;99.90;;;;;;5075596;28;20039;-68
2024/01/25 05:46:05;;;;;;;74.88;7.72;;;4.40;99.90;;;;;;5077861;28;20673;-67
2024/01/25 05:48:31;;;;;;;61.88;7.45;;;4.30;99.90;;;;;;5058249;28;20588;-67
2024/01/25 05:50:57;;;;;;;67.78;8.07;;;4.40;99.90;;;;;;5046326;28;20081;-67
2024/01/25 05:53:22;;;;;;;76.55;8.60;;;4.30;99.90;;;;;;5075621;28;20040;-67
2024/01/25 05:55:51;;;;;;;67.82;7.50;;;4.50;99.90;;;;;;5044899;28;20703;-68
2024/01/25 05:58:17;;;;;;;78.65;8.32;;;4.30;99.90;;;;;;5076217;28;20171;-67
2024/01/25 06:00:43;;;;;;;69.43;6.53;;;4.30;99.90;;;;;;5057881;28;20209;-67
2024/01/25 06:03:09;;;;;;;71.82;7.88;;;4.40;99.90;;;;;;5057659;28;20143;-68
2024/01/25 06:05:35;;;;;;;94.55;9.63;;;4.20;99.90;;;;;;5073333;28;20077;-67
2024/01/25 06:08:01;;;;;;;64.82;7.45;;;4.30;99.90;;;;;;5048334;28;20190;-67
2024/01/25 06:10:27;;;;;;;85.47;8.70;;;4.40;99.90;;;;;;5057249;28;20040;-68
2024/01/25 06:12:52;;;;;;;59.30;7.07;;;4.20;99.90;;;;;;5058052;28;20031;-68
2024/01/25 06:15:18;;;;;;;63.65;7.45;;;4.30;99.90;;;;;;5057979;28;20036;-67
2024/01/25 06:17:44;;;;;;;67.55;7.55;;;4.20;99.90;;;;;;5075799;28;20042;-67
2024/01/25 06:20:10;;;;;;;82.05;7.95;;;4.50;99.90;;;;;;5059240;28;20251;-66
2024/01/25 06:22:40;;;;;;;66.65;8.00;;;4.40;99.90;;;;;;5059434;28;20044;-66
2024/01/25 06:25:06;;;;;;;76.68;9.07;;;4.40;99.90;;;;;;5059162;28;20146;-66
2024/01/25 06:27:32;;;;;;;73.18;7.78;;;4.50;99.90;;;;;;5059160;28;20835;-68
2024/01/25 06:29:58;;;;;;;68.25;7.22;;;4.50;99.90;;;;;;5057987;28;20051;-67
2024/01/25 06:32:24;;;;;;;66.25;7.28;;;4.60;99.90;;;;;;5043777;28;20053;-67
2024/01/25 06:34:49;;;;;;;59.08;6.75;;;4.50;99.90;;;;;;5057563;28;20480;-66
2024/01/25 06:37:18;;;;;;;75.75;8.05;;;4.10;99.90;;;;;;5044829;28;20032;-67
2024/01/25 06:39:44;;;;;;;91.38;9.70;;;4.30;99.90;;;;;;5044934;28;20455;-67
2024/01/25 06:42:10;;;;;;;76.53;7.82;;;4.00;99.90;;;;;;5044984;28;20046;-67
2024/01/25 06:44:36;;;;;;;73.18;8.15;;;4.30;99.90;;;;;;5044693;28;20039;-67
2024/01/25 06:47:02;;;;;;;63.25;7.82;;;4.30;99.90;;;;;;5056428;28;20043;-67
2024/01/25 06:49:28;;;;;;;70.30;7.28;;;4.20;99.90;;;;;;5034891;28;20359;-66
2024/01/25 06:51:53;;;;;;;61.28;6.88;;;4.00;99.90;;;;;;5055549;28;20127;-66
2024/01/25 06:54:19;;;;;;;68.05;7.50;;;4.10;99.90;;;;;;5086052;28;20045;-67
2024/01/25 06:56:46;;;;;;;63.05;6.97;;;4.20;99.90;;;;;;5061084;28;20661;-67
2024/01/25 06:59:11;;;;;;;74.93;7.75;;;4.00;99.90;;;;;;5057558;28;20609;-66
2024/01/25 07:01:37;;;;;;;53.17;6.00;;;4.00;99.90;;;;;;5056608;28;20041;-67
2024/01/25 07:04:03;;;;;;;62.65;7.25;;;4.00;99.90;;;;;;5052782;28;20100;-68
2024/01/25 07:06:30;;;;;;;71.22;7.75;;;3.90;99.90;;;;;;5057817;28;20256;-68
2024/01/25 07:08:56;;;;;;;54.22;6.15;;;4.20;99.90;;;;;;5053059;28;20052;-68
2024/01/25 07:11:21;;;;;;;79.97;8.43;;;4.00;99.90;;;;;;5056662;28;20040;-68
2024/01/25 07:13:47;;;;;;;72.93;8.52;;;3.70;99.90;;;;;;5037444;28;20194;-67
2024/01/25 07:16:13;;;;;;;78.80;8.15;;;4.00;99.90;;;;;;5038988;28;20148;-67
2024/01/25 07:18:39;;;;;;;70.38;7.35;;;4.00;99.90;;;;;;5053256;28;20375;-67
2024/01/25 07:21:05;;;;;;;75.68;8.23;;;3.70;99.90;;;;;;5073637;28;20040;-67
2024/01/25 07:23:30;;;;;;;62.10;7.22;;;3.90;99.90;;;;;;5037343;28;20046;-67
2024/01/25 07:25:56;;;;;;;75.47;7.68;;;4.10;99.90;;;;;;5068217;28;20105;-68
2024/01/25 07:28:22;;;;;;;70.93;7.28;;;3.80;99.90;;;;;;5086499;27;20036;-67
2024/01/25 07:30:49;;;;;;;84.95;8.52;;;3.70;99.90;;;;;;5050962;28;20076;-68
2024/01/25 07:33:15;;;;;;;81.93;7.97;;;3.70;99.90;;;;;;5035054;28;20094;-68
2024/01/25 07:35:45;;;;;;;86.88;8.40;;;4.00;99.90;;;;;;5034581;28;20047;-66
2024/01/25 07:38:15;;;;;;;80.38;8.55;;;3.90;99.90;;;;;;5034603;28;20036;-66
2024/01/25 07:40:41;;;;;;;77.32;8.25;;;3.70;99.90;;;;;;5072301;28;20252;-67
2024/01/25 07:43:07;;;;;;;85.93;8.55;;;3.90;99.90;;;;;;5057829;28;20401;-68
2024/01/25 07:45:33;;;;;;;74.25;8.30;;;3.40;99.90;;;;;;5067657;28;20032;-68
2024/01/25 07:47:59;;;;;;;75.38;8.38;;;4.00;99.90;;;;;;5053717;28;20835;-68
2024/01/25 07:50:25;;;;;;;82.93;7.70;;;3.50;99.90;;;;;;5084693;28;20469;-67
2024/01/25 07:52:50;;;;;;;82.32;8.93;;;3.50;99.90;;;;;;5067916;28;20036;-67
2024/01/25 07:55:17;;;;;;;79.90;9.55;;;3.90;99.90;;;;;;5045335;28;20127;-68
2024/01/25 07:57:44;;;;;;;73.38;7.65;;;3.60;99.90;;;;;;5051622;28;20117;-68
2024/01/25 08:00:10;;;;;;;89.82;8.70;;;3.60;99.90;;;;;;5034765;28;20386;-67
2024/01/25 08:02:36;;;;;;;71.63;8.30;;;4.00;99.90;;;;;;5051945;28;20085;-67
2024/01/25 08:05:02;;;;;;;73.28;7.82;;;3.80;99.90;;;;;;5101754;27;20565;-68
2024/01/25 08:07:28;;;;;;;81.45;8.27;;;3.70;99.90;;;;;;5051864;28;20192;-68
2024/01/25 08:09:57;;;;;;;85.00;7.57;;;3.70;99.90;;;;;;5033996;28;20051;-68
2024/01/25 08:12:24;;;;;;;80.05;9.05;;;3.80;99.90;;;;;;5050223;28;20036;-67
2024/01/25 08:14:50;;;;;;;91.60;8.05;;;4.00;99.90;;;;;;5051039;28;20044;-67
2024/01/25 08:17:16;;;;;;;77.45;8.25;;;3.90;99.90;;;;;;5052191;28;20311;-68
2024/01/25 08:19:42;;;;;;;61.25;7.40;;;4.40;99.90;;;;;;5056753;28;20541;-67
2024/01/25 08:22:07;;;;;;;68.55;7.60;;;4.00;99.90;;;;;;5075890;28;20060;-68
2024/01/25 08:24:33;;;;;;;66.53;8.20;;;4.40;99.90;;;;;;5075616;28;20702;-68
2024/01/25 08:26:59;;;;;;;71.10;7.95;;;4.00;99.90;;;;;;5075376;28;20344;-68
2024/01/25 08:29:24;;;;;;;75.15;8.68;;;4.50;99.90;;;;;;5058484;28;20074;-68
2024/01/25 08:31:50;;;;;;;77.00;8.02;;;4.50;99.90;;;;;;5073695;28;20537;-68
2024/01/25 08:34:16;;;;;;;68.00;7.60;;;4.50;99.90;;;;;;5075204;28;20047;-68
2024/01/25 08:36:42;;;;;;;78.43;8.73;;;4.70;99.90;;;;;;5057310;28;20079;-68
2024/01/25 08:39:08;;;;;;;69.28;7.90;;;4.60;99.90;;;;;;5074433;28;20161;-68
2024/01/25 08:41:34;;;;;;;77.18;8.38;;;4.40;99.90;;;;;;5059025;28;20048;-69
2024/01/25 08:44:00;;;;;;;79.38;8.80;;;4.70;99.90;;;;;;5058265;28;20509;-68
2024/01/25 08:46:26;;;;;;;74.68;8.52;;;4.50;99.90;;;;;;5074948;28;20066;-68
2024/01/25 08:48:52;;;;;;;85.32;8.48;;;4.50;99.90;;;;;;5059517;28;20051;-69
2024/01/25 08:51:18;;;;;;;74.28;8.73;;;4.60;99.90;;;;;;5076826;28;20403;-67
2024/01/25 08:53:44;;;;;;;78.75;10.27;;;5.10;99.90;;;;;;5040360;28;20623;-68
2024/01/25 08:56:10;;;;;;;81.60;8.65;;;5.00;99.90;;;;;;5074268;28;20036;-67
2024/01/25 08:58:36;;;;;;;70.00;8.63;;;5.20;99.90;;;;;;5057525;28;20501;-67
2024/01/25 09:01:01;;;;;;;70.65;7.70;;;5.00;99.90;;;;;;5075029;28;20380;-68
2024/01/25 09:03:27;;;;;;;64.07;8.07;;;5.00;99.90;;;;;;5058053;28;20778;-68
2024/01/25 09:05:53;;;;;;;77.53;9.85;;;5.40;99.90;;;;;;5076402;28;20052;-68
2024/01/25 09:08:19;;;;;;;75.90;8.63;;;5.50;99.90;;;;;;5075118;28;20335;-69
2024/01/25 09:10:44;;;;;;;78.00;8.70;;;5.10;99.90;;;;;;5075184;28;20040;-68
2024/01/25 09:13:10;;;;;;;82.03;9.20;;;5.50;99.90;;;;;;5062465;28;20402;-68
2024/01/25 09:15:36;;;;;;;65.45;8.25;;;5.60;99.90;;;;;;5057977;28;20085;-68
2024/01/25 09:18:02;;;;;;;75.47;8.57;;;5.20;99.90;;;;;;5056537;28;20130;-68
2024/01/25 09:20:28;;;;;;;81.88;9.40;;;5.50;99.90;;;;;;5057749;28;20433;-68
2024/01/25 09:22:55;;;;;;;85.07;9.75;;;5.70;99.90;;;;;;5057330;28;20318;-68
2024/01/25 09:25:21;;;;;;;64.75;8.10;;;5.80;99.90;;;;;;5073375;28;20071;-68
2024/01/25 09:27:47;;;;;;;65.32;8.15;;;5.40;99.90;;;;;;5073952;28;20448;-66
2024/01/25 09:30:14;;;;;;;78.25;8.90;;;5.40;99.90;;;;;;5072452;28;20055;-65
2024/01/25 09:32:40;;;;;;;80.93;9.82;;;5.90;99.90;;;;;;5072684;28;20051;-65
2024/01/25 09:35:06;;;;;;;72.65;8.98;;;6.00;99.90;;;;;;5072164;28;20535;-65
2024/01/25 09:37:31;;;;;;;58.33;8.32;;;5.90;99.90;;;;;;5072561;28;20036;-65
2024/01/25 09:40:00;;;;;;;55.13;7.38;;;6.00;99.90;;;;;;5072955;28;20506;-66
2024/01/25 09:42:26;;;;;;;73.70;9.02;;;6.20;99.90;;;;;;5089659;28;20188;-66
2024/01/25 09:44:54;;;;;;;70.10;8.65;;;6.10;99.90;;;;;;5062440;28;20070;-65
2024/01/25 09:47:21;;;;;;;55.95;8.00;;;6.00;99.90;;;;;;5090895;28;20304;-66
2024/01/25 09:49:47;;;;;;;62.72;8.73;;;5.90;99.90;;;;;;5082877;28;20051;-65
2024/01/25 09:52:13;;;;;;;65.32;9.23;;;5.80;99.90;;;;;;5064809;28;20885;-66
2024/01/25 09:54:39;;;;;;;70.53;9.32;;;5.90;99.90;;;;;;5072521;28;20032;-66
2024/01/25 09:57:19;;;;;;;66.43;9.65;;;6.10;99.90;;;;;;5071547;28;20126;-65
2024/01/25 09:59:46;;;;;;;68.18;8.68;;;6.00;99.90;;;;;;5054280;28;20359;-65
2024/01/25 10:02:11;;;;;;;66.40;9.10;;;6.00;99.90;;;;;;5059366;28;20047;-66
2024/01/25 10:04:38;;;;;;;58.40;8.27;;;6.10;99.90;;;;;;5074891;28;20044;-66
2024/01/25 10:07:03;;;;;;;68.72;9.32;;;6.10;99.90;;;;;;5074357;28;20144;-66
2024/01/25 10:09:38;;;;;;;61.83;7.88;;;6.20;99.90;;;;;;5074449;28;20104;-65
2024/01/25 10:12:07;;;;;;;62.47;8.35;;;6.50;99.90;;;;;;5076759;28;20132;-65
2024/01/25 10:14:33;;;;;;;72.65;10.13;;;6.60;99.90;;;;;;5064623;28;20709;-65
2024/01/25 10:16:59;;;;;;;69.03;9.25;;;6.60;99.90;;;;;;5062955;28;20553;-67
2024/01/25 10:19:25;;;;;;;62.38;8.25;;;6.70;99.90;;;;;;5059611;28;20032;-65
2024/01/25 10:21:51;;;;;;;60.78;9.68;;;6.90;99.90;;;;;;5058500;28;20105;-65
2024/01/25 10:24:17;;;;;;;50.80;7.65;;;7.20;99.90;;;;;;5059811;28;20374;-65
2024/01/25 10:26:42;;;;;;;73.03;8.75;;;7.30;99.90;;;;;;5074741;28;20346;-65
2024/01/25 10:29:08;;;;;;;68.25;9.73;;;7.30;99.90;;;;;;5056699;28;20094;-65
2024/01/25 10:31:40;;;;;;;67.40;10.00;;;7.60;99.90;;;;;;5058274;28;20549;-65
2024/01/25 10:34:12;;;;;;;61.58;8.35;;;7.90;99.90;;;;;;5057783;28;20046;-65
2024/01/25 10:36:40;;;;;;;49.53;8.02;;;8.20;99.90;;;;;;5076851;28;20789;-66
2024/01/25 10:39:08;;;;;;;43.75;7.53;;;8.30;99.90;;;;;;5074453;28;20047;-65
2024/01/25 10:41:34;;;;;;;53.25;7.22;;;8.30;99.90;;;;;;5058049;28;20036;-65
2024/01/25 10:44:01;;;;;;;57.92;8.50;;;8.40;99.90;;;;;;5076054;28;20122;-65
2024/01/25 10:46:29;;;;;;;62.28;8.70;;;8.70;99.90;;;;;;5058845;28;20062;-65
2024/01/25 10:48:58;;;;;;;49.80;8.93;;;9.00;99.90;;;;;;5086514;28;20056;-65
2024/01/25 10:55:18;;;;;;;40.60;7.45;;;9.60;99.90;;;;;;5034217;28;20039;-66
2024/01/25 10:57:45;;;;;;;51.42;8.18;;;9.60;99.90;;;;;;5018816;28;20032;-67
2024/01/25 11:00:12;;;;;;;52.53;8.27;;;9.50;99.90;;;;;;5077967;28;20500;-66
2024/01/25 11:02:42;;;;;;;52.83;7.85;;;9.60;99.90;;;;;;5060525;28;20434;-66
2024/01/25 11:05:12;;;;;;;48.92;8.10;;;9.90;99.90;;;;;;5060574;28;20040;-66
2024/01/25 11:07:48;;;;;;;47.38;7.82;;;9.80;99.90;;;;;;5077510;28;20066;-66
2024/01/25 11:10:19;;;;;;;52.60;7.63;;;9.80;99.90;;;;;;5079590;28;20497;-67
2024/01/25 11:13:00;;;;;;;43.53;8.07;;;9.50;99.90;;;;;;5077630;28;20049;-66
2024/01/25 11:15:36;;;;;;;42.83;6.93;;;9.50;99.90;;;;;;5096476;28;20116;-66
2024/01/25 11:18:06;;;;;;;48.92;7.97;;;9.00;99.90;;;;;;5078659;28;20054;-66
2024/01/25 11:20:33;;;;;;;48.15;7.88;;;8.80;99.90;;;;;;5065820;28;20428;-67
2024/01/25 11:23:02;;;;;;;46.13;8.00;;;8.60;99.90;;;;;;5060534;28;20039;-67
2024/01/25 11:25:30;;;;;;;56.30;7.85;;;8.70;99.90;;;;;;5076855;28;20505;-66
2024/01/25 11:27:56;;;;;;;49.63;8.45;;;8.60;99.90;;;;;;5062043;28;20941;-66
2024/01/25 11:30:22;;;;;;;48.45;8.00;;;8.60;99.90;;;;;;5060278;28;20044;-67
2024/01/25 11:32:48;;;;;;;48.85;7.85;;;8.50;99.90;;;;;;5077919;28;20044;-65
2024/01/25 11:35:18;;;;;;;47.55;7.45;;;8.60;99.90;;;;;;5059356;28;20032;-68
2024/01/25 11:37:45;;;;;;;47.92;8.02;;;8.70;99.90;;;;;;5058036;28;20032;-66
2024/01/25 11:40:13;;;;;;;47.50;7.53;;;9.30;99.90;;;;;;5059195;28;20067;-67
2024/01/25 11:42:43;;;;;;;42.50;7.88;;;9.70;99.90;;;;;;5074879;28;20044;-66
2024/01/25 11:45:10;;;;;;;46.03;7.93;;;10.10;99.90;;;;;;5111483;27;20044;-65
2024/01/25 11:47:37;;;;;;;41.38;6.93;;;10.00;99.90;;;;;;5077576;28;20475;-65
2024/01/25 11:50:04;;;;;;;35.45;6.18;;;10.10;99.90;;;;;;5075389;28;20048;-66
2024/01/25 11:52:32;;;;;;;45.10;6.55;;;9.80;99.90;;;;;;5058647;28;20078;-66
2024/01/25 11:54:58;;;;;;;49.47;8.73;;;9.70;99.90;;;;;;5058528;28;20694;-65
2024/01/25 11:57:24;;;;;;;37.25;6.18;;;9.40;99.90;;;;;;5059584;28;20396;-66
2024/01/25 11:59:50;;;;;;;45.58;8.00;;;9.20;99.90;;;;;;5057773;28;20452;-66
2024/01/25 12:02:16;;;;;;;39.83;6.82;;;9.10;99.90;;;;;;5094082;28;20081;-66
2024/01/25 12:04:42;;;;;;;42.67;7.38;;;9.00;99.90;;;;;;5065127;28;20139;-65
2024/01/25 12:07:08;;;;;;;50.05;8.07;;;9.00;99.90;;;;;;5074758;28;20929;-66
2024/01/25 12:09:34;;;;;;;44.30;6.88;;;8.90;99.90;;;;;;5093708;28;20032;-65
2024/01/25 12:12:04;;;;;;;47.28;7.20;;;8.80;99.90;;;;;;5058970;28;20124;-65
2024/01/25 12:14:30;;;;;;;48.53;8.35;;;8.70;99.90;;;;;;5062767;28;20039;-67
2024/01/25 12:16:56;;;;;;;41.15;7.20;;;8.60;99.90;;;;;;5058367;28;20467;-65
2024/01/25 12:19:22;;;;;;;42.78;7.07;;;8.40;99.90;;;;;;5058945;28;20085;-66
2024/01/25 12:21:48;;;;;;;48.47;6.95;;;8.30;99.90;;;;;;5058901;28;20077;-65
2024/01/25 12:24:14;;;;;;;46.33;7.80;;;8.20;99.90;;;;;;5059708;28;20050;-65
2024/01/25 12:26:41;;;;;;;44.53;7.47;;;8.30;99.90;;;;;;5093308;28;20032;-65
2024/01/25 12:29:10;;;;;;;50.28;7.40;;;8.30;99.90;;;;;;5076293;28;20397;-65
2024/01/25 12:31:36;;;;;;;46.20;7.55;;;8.30;99.90;;;;;;5076929;28;20123;-65
2024/01/25 12:34:02;;;;;;;46.97;7.50;;;8.30;99.90;;;;;;5059786;28;20040;-66
2024/01/25 12:36:28;;;;;;;43.25;7.68;;;8.30;99.90;;;;;;5078569;28;20040;-65
2024/01/25 12:38:54;;;;;;;49.80;7.80;;;8.40;99.90;;;;;;5060572;28;20297;-66
2024/01/25 12:41:20;;;;;;;46.65;8.05;;;8.30;99.90;;;;;;5060334;28;20070;-66
2024/01/25 12:43:46;;;;;;;49.28;7.85;;;8.30;99.90;;;;;;5076567;28;20097;-66
2024/01/25 12:46:12;;;;;;;60.00;9.38;;;8.40;99.90;;;;;;5094004;28;20066;-66